createdAt,value
2022-12-13T00:00:02.712Z,94801.81
2022-12-13T00:02:30.625Z,94809.66
2022-12-13T00:05:01.549Z,94811.97
2022-12-13T00:07:29.267Z,94801.03
2022-12-13T00:09:57.234Z,94802.97
2022-12-13T00:12:26.364Z,94793.50
2022-12-13T00:14:58.917Z,94800.34
2022-12-13T00:17:26.694Z,94799.72
2022-12-13T00:19:54.782Z,94799.72
2022-12-13T00:22:22.444Z,94795.78
2022-12-13T00:24:55.053Z,94794.16
2022-12-13T00:27:23.281Z,94796.97
2022-12-13T00:29:52.347Z,94796.81
2022-12-13T00:32:20.216Z,94797.78
2022-12-13T00:34:48.175Z,94795.31
2022-12-13T00:37:15.883Z,94798.28
2022-12-13T00:39:43.610Z,94795.19
2022-12-13T00:42:11.295Z,94795.50
2022-12-13T00:44:38.997Z,94787.84
2022-12-13T00:47:08.054Z,94795.50
2022-12-13T00:49:35.757Z,94797.28
2022-12-13T00:52:03.504Z,94796.16
2022-12-13T00:54:31.264Z,94793.06
2022-12-13T00:56:58.958Z,94782.59
2022-12-13T00:59:27.088Z,94790.94
2022-12-13T01:01:54.819Z,94788.19
2022-12-13T01:04:23.885Z,94783.41
2022-12-13T01:06:51.617Z,94786.03
2022-12-13T01:09:21.117Z,94782.44
2022-12-13T01:11:49.811Z,94788.31
2022-12-13T01:14:18.520Z,94779.69
2022-12-13T01:16:46.298Z,94783.41
2022-12-13T01:19:14.115Z,94784.59
2022-12-13T01:21:44.914Z,94775.94
2022-12-13T01:24:12.634Z,94778.19
2022-12-13T01:26:40.345Z,94769.88
2022-12-13T01:29:08.993Z,94768.06
2022-12-13T01:31:41.308Z,94766.75
2022-12-13T01:34:10.604Z,94755.31
2022-12-13T01:36:39.211Z,94761.34
2022-12-13T01:39:15.270Z,94758.94
2022-12-13T01:41:44.562Z,94752.19
2022-12-13T01:44:45.404Z,94755.31
2022-12-13T01:47:14.305Z,94749.25
2022-12-13T01:49:42.817Z,94754.00
2022-12-13T01:52:14.579Z,94745.34
2022-12-13T01:54:48.773Z,94751.38
2022-12-13T01:57:20.096Z,94739.13
2022-12-13T01:59:49.602Z,94737.00
2022-12-13T02:02:19.583Z,94733.44
2022-12-13T02:04:54.229Z,94736.38
2022-12-13T02:07:24.404Z,94732.78
2022-12-13T02:09:56.993Z,94736.75
2022-12-13T02:12:29.398Z,94730.00
2022-12-13T02:15:00.508Z,94725.47
2022-12-13T02:17:45.095Z,94723.97
2022-12-13T02:20:44.401Z,94716.78
2022-12-13T02:23:42.011Z,94715.47
2022-12-13T02:26:40.636Z,94706.19
2022-12-13T02:29:37.889Z,94705.88
2022-12-13T02:32:16.007Z,94705.88
2022-12-13T02:34:48.939Z,94693.31
2022-12-13T02:37:24.690Z,94701.47
2022-12-13T02:39:58.042Z,94695.81
2022-12-13T02:42:28.843Z,94697.78
2022-12-13T02:45:02.201Z,94691.06
2022-12-13T02:47:32.938Z,94682.41
2022-12-13T02:50:05.695Z,94685.53
2022-12-13T02:52:34.009Z,94683.06
2022-12-13T02:55:07.198Z,94671.00
2022-12-13T02:57:37.326Z,94676.41
2022-12-13T03:00:09.497Z,94676.72
2022-12-13T03:02:46.574Z,94671.19
2022-12-13T03:05:40.160Z,94669.22
2022-12-13T03:08:21.667Z,94667.28
2022-12-13T03:10:59.921Z,94664.97
2022-12-13T03:13:36.682Z,94664.31
2022-12-13T03:16:11.998Z,94669.03
2022-12-13T03:18:42.704Z,94658.09
2022-12-13T03:21:10.961Z,94666.09
2022-12-13T03:23:39.460Z,94672.72
2022-12-13T03:26:12.324Z,94672.41
2022-12-13T03:28:40.749Z,94670.91
2022-12-13T03:31:09.125Z,94665.00
2022-12-13T03:33:38.713Z,94671.66
2022-12-13T03:36:08.951Z,94664.91
2022-12-13T03:38:36.996Z,94663.38
2022-12-13T03:41:08.427Z,94670.22
2022-12-13T03:43:36.345Z,94666.44
2022-12-13T03:46:04.152Z,94662.47
2022-12-13T03:48:31.895Z,94659.19
2022-12-13T03:50:59.563Z,94654.09
2022-12-13T03:53:32.557Z,94649.06
2022-12-13T03:56:02.113Z,94640.41
2022-12-13T03:58:36.524Z,94641.94
2022-12-13T04:01:07.028Z,94638.69
2022-12-13T04:03:34.876Z,94645.06
2022-12-13T04:06:02.695Z,94642.03
2022-12-13T04:08:32.089Z,94640.72
2022-12-13T04:10:59.867Z,94643.81
2022-12-13T04:13:32.516Z,94640.88
2022-12-13T04:16:00.589Z,94641.47
2022-12-13T04:18:28.372Z,94638.91
2022-12-13T04:20:57.362Z,94643.50
2022-12-13T04:23:25.224Z,94643.16
2022-12-13T04:25:54.353Z,94640.44
2022-12-13T04:28:23.091Z,94631.97
2022-12-13T04:30:54.887Z,94633.94
2022-12-13T04:33:22.944Z,94635.09
2022-12-13T04:35:51.590Z,94636.88
2022-12-13T04:38:19.801Z,94639.03
2022-12-13T04:40:47.514Z,94634.16
2022-12-13T04:43:16.583Z,94632.03
2022-12-13T04:45:44.347Z,94639.06
2022-12-13T04:48:12.078Z,94631.22
2022-12-13T04:50:39.760Z,94630.06
2022-12-13T04:53:07.483Z,94623.53
2022-12-13T04:55:35.202Z,94627.34
2022-12-13T04:58:02.930Z,94622.28
2022-12-13T05:00:32.206Z,94626.91
2022-12-13T05:02:59.908Z,94617.47
2022-12-13T05:05:27.592Z,94620.84
2022-12-13T05:07:55.338Z,94618.53
2022-12-13T05:10:36.046Z,94619.34
2022-12-13T05:13:05.942Z,94612.50
2022-12-13T05:15:35.441Z,94615.25
2022-12-13T05:18:09.754Z,94603.09
2022-12-13T05:20:39.798Z,94600.97
2022-12-13T05:23:07.798Z,94602.63
2022-12-13T05:25:36.773Z,94603.59
2022-12-13T05:28:28.306Z,94600.84
2022-12-13T05:30:54.347Z,94602.97
2022-12-13T05:33:22.100Z,94603.78
2022-12-13T05:35:49.824Z,94614.06
2022-12-13T05:38:17.669Z,94614.06
2022-12-13T05:40:45.840Z,94614.25
2022-12-13T05:43:21.963Z,94604.97
2022-12-13T05:45:50.263Z,94603.00
2022-12-13T05:48:24.837Z,94603.00
2022-12-13T05:50:52.677Z,94605.59
2022-12-13T05:53:39.398Z,94606.25
2022-12-13T05:56:07.461Z,94620.16
2022-12-13T05:58:35.641Z,94605.31
2022-12-13T06:01:08.669Z,94610.84
2022-12-13T06:03:37.881Z,94606.59
2022-12-13T06:06:07.029Z,94603.53
2022-12-13T06:08:34.870Z,94600.25
2022-12-13T06:11:10.345Z,94604.81
2022-12-13T06:13:42.626Z,94605.81
2022-12-13T06:16:22.640Z,94606.28
2022-12-13T06:19:02.759Z,94607.41
2022-12-13T06:21:41.165Z,94596.50
2022-12-13T06:24:13.644Z,94609.03
2022-12-13T06:26:41.341Z,94601.22
2022-12-13T06:29:10.402Z,94611.47
2022-12-13T06:31:38.132Z,94618.50
2022-12-13T06:34:14.356Z,94610.34
2022-12-13T06:36:45.047Z,94615.22
2022-12-13T06:39:15.656Z,94620.44
2022-12-13T06:41:45.215Z,94621.91
2022-12-13T06:44:12.909Z,94620.41
2022-12-13T06:46:40.766Z,94624.50
2022-12-13T06:49:10.128Z,94620.72
2022-12-13T06:51:37.866Z,94623.19
2022-12-13T06:54:05.605Z,94629.56
2022-12-13T06:56:33.798Z,94629.09
2022-12-13T06:59:02.401Z,94632.66
2022-12-13T07:01:37.796Z,94623.72
2022-12-13T07:04:30.719Z,94633.47
2022-12-13T07:06:55.500Z,94640.81
2022-12-13T07:09:30.265Z,94640.81
2022-12-13T07:11:58.008Z,94635.44
2022-12-13T07:14:25.759Z,94626.16
2022-12-13T07:16:59.437Z,94636.94
2022-12-13T07:19:34.958Z,94635.63
2022-12-13T07:22:05.745Z,94636.91
2022-12-13T07:24:34.983Z,94638.88
2022-12-13T07:27:03.013Z,94640.19
2022-12-13T07:29:30.714Z,94645.41
2022-12-13T07:32:01.397Z,94634.81
2022-12-13T07:34:29.978Z,94638.72
2022-12-13T07:36:57.729Z,94627.31
2022-12-13T07:39:27.138Z,94629.59
2022-12-13T07:41:56.052Z,94625.19
2022-12-13T07:44:24.166Z,94630.25
2022-12-13T07:46:51.917Z,94625.69
2022-12-13T07:49:19.729Z,94630.72
2022-12-13T07:51:47.444Z,94624.91
2022-12-13T07:54:15.175Z,94624.84
2022-12-13T07:56:44.344Z,94623.47
2022-12-13T07:59:13.635Z,94625.59
2022-12-13T08:01:41.429Z,94622.75
2022-12-13T08:04:09.254Z,94632.16
2022-12-13T08:06:38.991Z,94617.84
2022-12-13T08:09:06.962Z,94620.72
2022-12-13T08:11:34.877Z,94620.47
2022-12-13T08:14:04.064Z,94621.88
2022-12-13T08:16:31.900Z,94618.94
2022-12-13T08:19:02.850Z,94617.97
2022-12-13T08:21:53.918Z,94614.88
2022-12-13T08:24:22.529Z,94609.13
2022-12-13T08:26:50.257Z,94615.75
2022-12-13T08:29:22.974Z,94616.28
2022-12-13T08:32:02.150Z,94598.91
2022-12-13T08:34:30.246Z,94602.53
2022-12-13T08:37:02.285Z,94606.84
2022-12-13T08:39:34.245Z,94608.78
2022-12-13T08:42:15.514Z,94602.75
2022-12-13T08:44:47.877Z,94612.34
2022-12-13T08:47:24.134Z,94614.41
2022-12-13T08:50:02.043Z,94617.00
2022-12-13T08:52:31.771Z,94619.59
2022-12-13T08:54:59.577Z,94610.94
2022-12-13T08:57:27.460Z,94613.88
2022-12-13T08:59:56.571Z,94612.09
2022-12-13T09:02:24.337Z,94617.00
2022-12-13T09:04:52.048Z,94616.41
2022-12-13T09:07:19.800Z,94615.19
2022-12-13T09:09:47.522Z,94617.00
2022-12-13T09:12:30.256Z,94616.16
2022-12-13T09:15:01.561Z,94609.81
2022-12-13T09:17:37.156Z,94599.97
2022-12-13T09:20:28.112Z,94601.13
2022-12-13T09:23:01.757Z,94584.66
2022-12-13T09:25:36.723Z,94590.94
2022-12-13T09:28:06.800Z,94590.31
2022-12-13T09:30:39.302Z,94593.47
2022-12-13T09:33:28.117Z,94589.28
2022-12-13T09:35:54.833Z,94585.16
2022-12-13T09:38:22.565Z,94586.66
2022-12-13T09:40:58.947Z,94576.94
2022-12-13T09:43:32.435Z,94578.56
2022-12-13T09:46:22.183Z,94576.28
2022-12-13T09:48:52.979Z,94576.78
2022-12-13T09:51:29.950Z,94572.19
2022-12-13T09:54:08.701Z,94567.84
2022-12-13T09:56:36.393Z,94564.56
2022-12-13T09:59:04.153Z,94563.66
2022-12-13T10:01:34.644Z,94564.78
2022-12-13T10:04:02.487Z,94556.22
2022-12-13T10:06:32.715Z,94553.94
2022-12-13T10:09:01.930Z,94555.88
2022-12-13T10:11:31.399Z,94545.94
2022-12-13T10:14:05.186Z,94559.28
2022-12-13T10:16:44.957Z,94558.75
2022-12-13T10:19:28.087Z,94555.59
2022-12-13T10:22:01.265Z,94556.66
2022-12-13T10:24:48.185Z,94543.97
2022-12-13T10:27:18.142Z,94543.06
2022-12-13T10:30:03.208Z,94550.00
2022-12-13T10:32:37.624Z,94547.47
2022-12-13T10:35:21.525Z,94537.97
2022-12-13T10:37:49.474Z,94533.81
2022-12-13T10:40:33.326Z,94538.28
2022-12-13T10:43:10.141Z,94522.84
2022-12-13T10:45:38.498Z,94514.97
2022-12-13T10:48:18.333Z,94516.44
2022-12-13T10:50:58.345Z,94516.38
2022-12-13T10:53:30.728Z,94513.16
2022-12-13T10:56:02.320Z,94514.31
2022-12-13T10:58:39.142Z,94516.72
2022-12-13T11:01:22.417Z,94515.59
2022-12-13T11:04:02.384Z,94502.28
2022-12-13T11:06:43.414Z,94507.97
2022-12-13T11:09:22.919Z,94502.41
2022-12-13T11:11:58.858Z,94511.06
2022-12-13T11:14:31.590Z,94496.88
2022-12-13T11:17:06.910Z,94495.94
2022-12-13T11:19:40.113Z,94495.38
2022-12-13T11:22:10.520Z,94505.81
2022-12-13T11:24:42.270Z,94501.63
2022-12-13T11:27:29.630Z,94494.38
2022-12-13T11:30:10.006Z,94494.72
2022-12-13T11:32:59.032Z,94496.69
2022-12-13T11:35:33.897Z,94493.13
2022-12-13T11:38:11.824Z,94486.34
2022-12-13T11:40:46.682Z,94479.16
2022-12-13T11:43:24.646Z,94473.19
2022-12-13T11:45:56.364Z,94472.16
2022-12-13T11:48:32.074Z,94469.44
2022-12-13T11:51:02.320Z,94478.47
2022-12-13T11:53:34.692Z,94474.44
2022-12-13T11:56:09.247Z,94468.91
2022-12-13T12:01:38.409Z,94465.38
2022-12-13T12:04:17.415Z,94463.13
2022-12-13T12:06:53.089Z,94466.75
2022-12-13T12:09:24.090Z,94478.53
2022-12-13T12:12:00.075Z,94485.56
2022-12-13T12:14:38.391Z,94480.13
2022-12-13T12:17:06.655Z,94476.19
2022-12-13T12:19:38.119Z,94464.69
2022-12-13T12:22:22.976Z,94462.91
2022-12-13T12:25:04.014Z,94462.13
2022-12-13T12:27:40.058Z,94460.97
2022-12-13T12:30:22.722Z,94456.50
2022-12-13T12:33:01.676Z,94456.91
2022-12-13T12:36:04.398Z,94455.56
2022-12-13T12:39:15.720Z,94458.97
2022-12-13T12:41:55.881Z,94452.16
2022-12-13T12:44:37.373Z,94459.19
2022-12-13T12:47:38.248Z,94451.09
2022-12-13T12:50:24.787Z,94456.78
2022-12-13T12:53:22.331Z,94462.94
2022-12-13T12:56:03.074Z,94461.31
2022-12-13T12:58:39.443Z,94474.25
2022-12-13T13:01:23.173Z,94479.84
2022-12-13T13:03:53.357Z,94487.09
2022-12-13T13:06:34.684Z,94481.59
2022-12-13T13:09:06.384Z,94482.97
2022-12-13T13:11:42.992Z,94486.78
2022-12-13T13:14:28.247Z,94492.91
2022-12-13T13:16:56.299Z,94481.47
2022-12-13T13:19:44.063Z,94490.44
2022-12-13T13:22:32.304Z,94486.66
2022-12-13T13:25:14.786Z,94490.94
2022-12-13T13:27:45.393Z,94494.28
2022-12-13T13:30:19.403Z,94495.94
2022-12-13T13:32:48.305Z,94506.31
2022-12-13T13:35:53.610Z,94504.38
2022-12-13T13:39:01.192Z,94509.22
2022-12-13T13:42:09.026Z,94502.88
2022-12-13T13:45:06.458Z,94507.97
2022-12-13T13:47:41.993Z,94503.22
2022-12-13T13:50:49.703Z,94503.44
2022-12-13T13:54:02.145Z,94498.19
2022-12-13T13:57:07.498Z,94495.28
2022-12-13T14:00:11.965Z,94494.50
2022-12-13T14:03:22.214Z,94488.75
2022-12-13T14:06:15.762Z,94496.66
2022-12-13T14:09:00.437Z,94494.84
2022-12-13T14:12:16.311Z,94502.19
2022-12-13T14:15:07.413Z,94498.22
2022-12-13T14:18:30.746Z,94501.44
2022-12-13T14:21:07.195Z,94504.16
2022-12-13T14:23:49.665Z,94503.66
2022-12-13T14:26:28.888Z,94507.38
2022-12-13T14:28:59.545Z,94513.13
2022-12-13T14:31:37.146Z,94508.38
2022-12-13T14:34:07.517Z,94522.00
2022-12-13T14:36:39.119Z,94518.84
2022-12-13T14:39:25.298Z,94514.97
2022-12-13T14:41:56.816Z,94507.38
2022-12-13T14:44:27.489Z,94519.19
2022-12-13T14:46:57.827Z,94528.50
2022-12-13T14:49:28.468Z,94532.13
2022-12-13T14:52:01.668Z,94537.50
2022-12-13T14:54:37.253Z,94537.31
2022-12-13T14:57:05.835Z,94535.63
2022-12-13T14:59:36.506Z,94528.38
2022-12-13T15:02:06.592Z,94529.81
2022-12-13T15:04:37.839Z,94532.81
2022-12-13T15:07:10.263Z,94527.41
2022-12-13T15:09:40.429Z,94536.16
2022-12-13T15:12:15.269Z,94531.53
2022-12-13T15:14:58.477Z,94541.97
2022-12-13T15:17:34.972Z,94537.31
2022-12-13T15:20:03.394Z,94539.34
2022-12-13T15:22:32.560Z,94541.81
2022-12-13T15:25:01.361Z,94543.09
2022-12-13T15:27:29.353Z,94550.41
2022-12-13T15:29:57.287Z,94547.16
2022-12-13T15:32:25.049Z,94539.25
2022-12-13T15:34:53.332Z,94536.78
2022-12-13T15:37:29.032Z,94539.25
2022-12-13T15:40:02.974Z,94534.38
2022-12-13T15:42:34.640Z,94551.03
2022-12-13T15:45:04.193Z,94542.09
2022-12-13T15:47:32.333Z,94538.28
2022-12-13T15:50:02.086Z,94539.09
2022-12-13T15:52:36.833Z,94543.75
2022-12-13T15:57:59.264Z,94533.81
2022-12-13T16:00:31.196Z,94531.59
2022-12-13T16:03:08.862Z,94533.22
2022-12-13T16:05:39.531Z,94537.06
2022-12-13T16:08:13.984Z,94528.94
2022-12-13T16:10:47.858Z,94526.13
2022-12-13T16:13:26.130Z,94526.31
2022-12-13T16:16:00.452Z,94522.66
2022-12-13T16:18:44.620Z,94524.09
2022-12-13T16:21:12.311Z,94520.03
2022-12-13T16:23:40.015Z,94516.97
2022-12-13T16:26:21.619Z,94520.84
2022-12-13T16:28:50.712Z,94516.56
2022-12-13T16:31:20.967Z,94519.81
2022-12-13T16:33:48.775Z,94517.59
2022-12-13T16:36:16.933Z,94515.56
2022-12-13T16:38:44.875Z,94513.94
2022-12-13T16:41:14.640Z,94507.03
2022-12-13T16:43:53.381Z,94502.78
2022-12-13T16:47:13.709Z,94499.72
2022-12-13T16:49:19.426Z,94494.25
2022-12-13T16:51:48.757Z,94489.38
2022-12-13T16:54:17.086Z,94491.00
2022-12-13T16:56:44.827Z,94493.47
2022-12-13T16:59:16.524Z,94494.88
2022-12-13T17:01:45.282Z,94495.28
2022-12-13T17:04:18.066Z,94494.66
2022-12-13T17:06:48.152Z,94502.41
2022-12-13T17:09:15.858Z,94493.06
2022-12-13T17:11:43.594Z,94491.84
2022-12-13T17:14:11.520Z,94491.22
2022-12-13T17:16:40.602Z,94495.91
2022-12-13T17:19:08.443Z,94495.28
2022-12-13T17:21:36.128Z,94487.38
2022-12-13T17:24:04.032Z,94486.16
2022-12-13T17:26:31.923Z,94484.91
2022-12-13T17:28:59.697Z,94485.31
2022-12-13T17:31:34.727Z,94489.16
2022-12-13T17:34:05.367Z,94482.88
2022-12-13T17:36:33.250Z,94492.38
2022-12-13T17:39:01.020Z,94490.97
2022-12-13T17:41:28.769Z,94480.63
2022-12-13T17:43:59.648Z,94476.41
2022-12-13T17:46:27.462Z,94475.41
2022-12-13T17:48:55.279Z,94478.19
2022-12-13T17:51:24.442Z,94476.38
2022-12-13T17:53:52.282Z,94476.78
2022-12-13T17:56:20.377Z,94474.94
2022-12-13T17:58:48.146Z,94473.28
2022-12-13T18:01:18.265Z,94473.31
2022-12-13T18:03:47.906Z,94474.91
2022-12-13T18:06:16.383Z,94477.56
2022-12-13T18:08:47.042Z,94480.81
2022-12-13T18:11:33.812Z,94464.63
2022-12-13T18:14:02.618Z,94470.50
2022-12-13T18:16:36.306Z,94464.06
2022-12-13T18:19:06.917Z,94464.41
2022-12-13T18:21:36.626Z,94459.75
2022-12-13T18:24:07.289Z,94465.25
2022-12-13T18:26:35.703Z,94459.38
2022-12-13T18:29:04.835Z,94468.69
2022-12-13T18:31:32.730Z,94464.66
2022-12-13T18:34:00.857Z,94459.41
2022-12-13T18:36:28.878Z,94466.06
2022-12-13T18:38:56.931Z,94462.03
2022-12-13T18:41:28.217Z,94466.69
2022-12-13T18:43:59.609Z,94461.78
2022-12-13T18:46:28.771Z,94455.91
2022-12-13T18:48:56.869Z,94458.16
2022-12-13T18:51:25.464Z,94461.78
2022-12-13T18:53:53.361Z,94454.09
2022-12-13T18:56:21.258Z,94448.59
2022-12-13T18:58:51.921Z,94436.69
2022-12-13T19:01:20.096Z,94436.66
2022-12-13T19:03:49.506Z,94434.69
2022-12-13T19:06:19.361Z,94433.88
2022-12-13T19:08:49.561Z,94435.66
2022-12-13T19:11:17.537Z,94432.03
2022-12-13T19:13:45.365Z,94426.19
2022-12-13T19:16:17.208Z,94431.00
2022-12-13T19:18:45.538Z,94430.81
2022-12-13T19:21:16.346Z,94434.47
2022-12-13T19:23:47.323Z,94426.16
2022-12-13T19:26:18.200Z,94429.63
2022-12-13T19:28:46.616Z,94422.53
2022-12-13T19:31:16.955Z,94412.78
2022-12-13T19:33:45.624Z,94416.63
2022-12-13T19:36:13.557Z,94421.72
2022-12-13T19:38:42.138Z,94416.03
2022-12-13T19:41:16.327Z,94419.28
2022-12-13T19:43:50.766Z,94400.00
2022-12-13T19:46:22.535Z,94407.91
2022-12-13T19:48:50.797Z,94407.09
2022-12-13T19:51:18.730Z,94406.31
2022-12-13T19:53:46.852Z,94402.25
2022-12-13T19:56:17.809Z,94406.09
2022-12-13T19:58:47.187Z,94395.97
2022-12-13T20:01:15.453Z,94403.47
2022-12-13T20:03:46.417Z,94391.72
2022-12-13T20:06:17.406Z,94393.50
2022-12-13T20:08:46.063Z,94387.22
2022-12-13T20:11:15.872Z,94384.59
2022-12-13T20:13:44.280Z,94376.88
2022-12-13T20:16:17.573Z,94377.06
2022-12-13T20:18:47.404Z,94378.06
2022-12-13T20:21:16.011Z,94390.25
2022-12-13T20:23:48.796Z,94398.56
2022-12-13T20:26:20.405Z,94391.47
2022-12-13T20:28:49.064Z,94391.06
2022-12-13T20:31:19.656Z,94399.75
2022-12-13T20:33:49.982Z,94391.06
2022-12-13T20:36:25.234Z,94388.81
2022-12-13T20:38:56.125Z,94377.09
2022-12-13T20:41:26.296Z,94370.56
2022-12-13T20:43:56.312Z,94375.63
2022-12-13T20:46:25.293Z,94359.81
2022-12-13T20:48:56.212Z,94353.53
2022-12-13T20:51:25.940Z,94355.56
2022-12-13T20:53:55.894Z,94364.47
2022-12-13T20:56:25.870Z,94346.59
2022-12-13T20:58:54.095Z,94344.97
2022-12-13T21:01:24.356Z,94353.47
2022-12-13T21:03:56.570Z,94331.91
2022-12-13T21:06:24.983Z,94316.47
2022-12-13T21:08:54.553Z,94305.88
2022-12-13T21:11:27.364Z,94309.13
2022-12-13T21:14:02.278Z,94316.59
2022-12-13T21:16:37.163Z,94313.75
2022-12-13T21:19:08.563Z,94296.84
2022-12-13T21:21:36.623Z,94295.22
2022-12-13T21:24:07.604Z,94284.09
2022-12-13T21:26:36.568Z,94276.13
2022-12-13T21:29:07.404Z,94280.38
2022-12-13T21:31:36.382Z,94291.97
2022-12-13T21:34:06.846Z,94292.56
2022-12-13T21:36:36.426Z,94296.59
2022-12-13T21:39:07.359Z,94288.50
2022-12-13T21:41:35.103Z,94281.41
2022-12-13T21:44:02.948Z,94288.06
2022-12-13T21:47:02.900Z,94295.16
2022-12-13T21:49:20.851Z,94288.59
2022-12-13T21:51:48.759Z,94290.22
2022-12-13T21:54:17.492Z,94267.47
2022-12-13T21:57:02.879Z,94272.72
2022-12-13T21:59:30.952Z,94262.78
2022-12-13T22:02:15.984Z,94267.88
2022-12-13T22:04:47.684Z,94273.84
2022-12-13T22:07:17.704Z,94253.75
2022-12-13T22:09:45.976Z,94240.91
2022-12-13T22:12:20.482Z,94245.53
2022-12-13T22:14:48.875Z,94265.03
2022-12-13T22:17:17.274Z,94263.00
2022-12-13T22:19:48.358Z,94253.00
2022-12-13T22:22:17.450Z,94244.19
2022-12-13T22:24:49.843Z,94227.47
2022-12-13T22:27:23.893Z,94240.38
2022-12-13T22:29:54.914Z,94256.38
2022-12-13T22:32:22.652Z,94254.94
2022-12-13T22:34:51.800Z,94253.88
2022-12-13T22:37:20.487Z,94251.47
2022-12-13T22:39:48.962Z,94239.13
2022-12-13T22:42:16.753Z,94236.66
2022-12-13T22:44:44.627Z,94245.16
2022-12-13T22:47:12.382Z,94242.50
2022-12-13T22:49:40.233Z,94250.06
2022-12-13T22:52:09.728Z,94246.50
2022-12-13T22:54:37.566Z,94226.53
2022-12-13T23:03:10.143Z,94226.00
2022-12-13T23:05:38.191Z,94223.16
2022-12-13T23:08:06.313Z,94224.34
2022-12-13T23:10:51.579Z,94206.56
2022-12-13T23:13:19.558Z,94215.66
2022-12-13T23:15:49.428Z,94197.25
2022-12-13T23:18:18.798Z,94185.28
2022-12-13T23:20:48.448Z,94175.53
2022-12-13T23:23:16.335Z,94190.06
2022-12-13T23:25:44.024Z,94188.31
2022-12-13T23:28:16.649Z,94195.66
2022-12-13T23:30:44.331Z,94191.28
2022-12-13T23:33:12.136Z,94178.25
2022-12-13T23:35:41.734Z,94182.06
2022-12-13T23:38:09.389Z,94181.69
2022-12-13T23:40:37.044Z,94189.19
2022-12-13T23:43:04.752Z,94198.50
2022-12-13T23:45:32.511Z,94192.19
2022-12-13T23:48:00.188Z,94177.16
2022-12-13T23:50:29.392Z,94159.88
2022-12-13T23:52:58.443Z,94154.97
2022-12-13T23:55:26.107Z,94144.41
2022-12-13T23:57:53.776Z,94133.25
